createdAt,value
2019-04-20T00:01:26.296Z,11.79
2019-04-20T00:03:49.046Z,12.14
2019-04-20T00:06:15.287Z,12.04
2019-04-20T00:08:42.707Z,12.00
2019-04-20T00:11:15.396Z,11.97
2019-04-20T00:13:45.388Z,11.99
2019-04-20T00:16:02.026Z,11.76
2019-04-20T00:18:34.721Z,11.95
2019-04-20T00:21:03.862Z,11.92
2019-04-20T00:23:37.947Z,11.47
2019-04-20T00:26:43.912Z,11.40
2019-04-20T00:29:07.301Z,11.55
2019-04-20T00:31:29.712Z,11.71
2019-04-20T00:33:57.503Z,11.81
2019-04-20T00:36:11.758Z,11.82
2019-04-20T00:38:42.611Z,12.02
2019-04-20T00:41:07.528Z,12.64
2019-04-20T00:43:34.313Z,12.73
2019-04-20T00:46:04.885Z,12.69
2019-04-20T00:48:35.079Z,12.69
2019-04-20T00:51:06.937Z,12.09
2019-04-20T00:53:26.204Z,12.25
2019-04-20T00:55:44.478Z,12.57
2019-04-20T00:58:20.182Z,12.30
2019-04-20T01:01:04.120Z,12.25
2019-04-20T01:03:23.291Z,12.34
2019-04-20T01:06:02.269Z,12.43
2019-04-20T01:08:12.848Z,12.32
2019-04-20T01:10:44.771Z,12.74
2019-04-20T01:13:13.366Z,12.62
2019-04-20T01:15:46.269Z,12.27
2019-04-20T01:18:00.798Z,12.14
2019-04-20T01:20:27.971Z,12.09
2019-04-20T01:23:01.887Z,11.76
2019-04-20T01:25:27.264Z,11.60
2019-04-20T01:28:19.281Z,11.53
2019-04-20T01:30:25.286Z,11.20
2019-04-20T01:32:55.372Z,11.49
2019-04-20T01:35:26.723Z,11.34
2019-04-20T01:37:54.681Z,11.37
2019-04-20T01:40:04.451Z,11.21
2019-04-20T01:42:29.929Z,10.95
2019-04-20T01:44:57.077Z,10.83
2019-04-20T01:47:23.888Z,10.94
2019-04-20T01:49:57.516Z,11.20
2019-04-20T01:52:25.563Z,11.28
2019-04-20T01:55:05.935Z,11.33
2019-04-20T01:57:24.790Z,11.74
2019-04-20T01:59:54.305Z,11.76
2019-04-20T02:02:28.234Z,11.77
2019-04-20T02:05:05.610Z,11.59
2019-04-20T02:07:28.507Z,11.64
2019-04-20T02:09:56.130Z,11.73
2019-04-20T02:12:22.347Z,11.70
2019-04-20T02:14:49.656Z,11.85
2019-04-20T02:17:20.000Z,11.77
2019-04-20T02:19:58.518Z,11.58
2019-04-20T02:22:17.106Z,11.52
2019-04-20T02:24:29.953Z,11.38
2019-04-20T02:26:56.638Z,11.08
2019-04-20T02:29:47.458Z,10.56
2019-04-20T02:32:31.797Z,10.52
2019-04-20T02:34:57.697Z,10.47
2019-04-20T02:37:56.635Z,10.37
2019-04-20T02:40:19.366Z,10.70
2019-04-20T02:42:47.678Z,10.50
2019-04-20T02:45:20.439Z,10.44
2019-04-20T02:47:41.007Z,10.35
2019-04-20T02:52:32.725Z,10.40
2019-04-20T02:54:53.669Z,10.25
2019-04-20T02:57:20.513Z,10.00
2019-04-20T03:00:03.306Z,10.17
2019-04-20T03:01:59.397Z,9.94
2019-04-20T03:04:20.281Z,10.09
2019-04-20T03:06:53.515Z,9.95
2019-04-20T03:09:26.359Z,10.06
2019-04-20T03:11:54.038Z,10.18
2019-04-20T03:14:13.874Z,9.90
2019-04-20T03:16:38.732Z,9.99
2019-04-20T03:19:04.122Z,9.94
2019-04-20T03:21:37.989Z,9.80
2019-04-20T03:24:11.727Z,9.82
2019-04-20T03:26:47.322Z,9.70
2019-04-20T03:29:15.984Z,9.92
2019-04-20T03:32:28.498Z,9.97
2019-04-20T03:34:48.472Z,9.77
2019-04-20T03:36:55.045Z,9.68
2019-04-20T03:39:13.617Z,9.66
2019-04-20T03:41:28.246Z,9.85
2019-04-20T03:43:47.753Z,9.87
2019-04-20T03:46:18.838Z,9.81
2019-04-20T03:49:02.792Z,9.76
2019-04-20T03:51:35.935Z,9.80
2019-04-20T03:54:02.662Z,9.90
2019-04-20T03:56:41.918Z,10.14
2019-04-20T03:59:08.672Z,10.21
2019-04-20T04:02:12.419Z,10.24
2019-04-20T04:04:25.173Z,10.14
2019-04-20T04:06:34.014Z,10.08
2019-04-20T04:09:06.416Z,10.03
2019-04-20T04:11:35.445Z,9.94
2019-04-20T04:13:46.061Z,9.73
2019-04-20T04:16:16.422Z,9.57
2019-04-20T04:18:44.657Z,9.44
2019-04-20T04:21:12.877Z,9.35
2019-04-20T04:23:49.015Z,9.18
2019-04-20T04:26:18.721Z,9.12
2019-04-20T04:28:41.013Z,9.16
2019-04-20T04:31:13.418Z,9.10
2019-04-20T04:33:54.627Z,9.18
2019-04-20T04:36:01.089Z,8.92
2019-04-20T04:38:37.419Z,9.01
2019-04-20T04:41:09.616Z,8.96
2019-04-20T04:43:25.385Z,9.13
2019-04-20T04:45:35.244Z,9.60
2019-04-20T04:48:01.929Z,9.45
2019-04-20T04:50:31.118Z,9.41
2019-04-20T04:53:02.782Z,9.38
2019-04-20T04:55:34.421Z,9.53
2019-04-20T04:57:47.533Z,9.72
2019-04-20T05:00:17.808Z,9.96
2019-04-20T05:02:46.576Z,10.03
2019-04-20T05:05:35.832Z,10.18
2019-04-20T05:07:52.130Z,10.32
2019-04-20T05:10:07.698Z,10.45
2019-04-20T05:12:35.938Z,10.75
2019-04-20T05:15:07.978Z,10.83
2019-04-20T05:17:51.146Z,10.98
2019-04-20T05:20:15.114Z,11.07
2019-04-20T05:22:46.662Z,11.35
2019-04-20T05:25:31.064Z,11.63
2019-04-20T05:28:03.051Z,11.70
2019-04-20T05:30:07.698Z,11.86
2019-04-20T05:32:44.951Z,11.90
2019-04-20T05:35:24.099Z,12.13
2019-04-20T05:37:48.739Z,12.15
2019-04-20T05:40:20.711Z,12.33
2019-04-20T05:42:59.506Z,12.48
2019-04-20T05:45:20.643Z,12.58
2019-04-20T05:47:54.875Z,12.90
2019-04-20T05:50:16.625Z,12.71
2019-04-20T05:55:14.703Z,12.96
2019-04-20T05:57:42.600Z,13.10
2019-04-20T06:00:12.659Z,13.30
2019-04-20T06:02:34.818Z,13.43
2019-04-20T06:05:05.663Z,13.48
2019-04-20T06:07:29.637Z,13.68
2019-04-20T06:09:59.891Z,13.86
2019-04-20T06:12:20.003Z,13.93
2019-04-20T06:15:04.461Z,14.02
2019-04-20T06:17:59.443Z,14.03
2019-04-20T06:20:31.068Z,14.25
2019-04-20T06:22:57.382Z,14.35
2019-04-20T06:25:39.564Z,14.35
2019-04-20T06:27:52.995Z,14.57
2019-04-20T06:30:13.795Z,14.67
2019-04-20T06:32:59.447Z,15.00
2019-04-20T06:35:39.118Z,15.02
2019-04-20T06:37:54.932Z,15.07
2019-04-20T06:40:31.923Z,15.18
2019-04-20T06:42:39.854Z,15.09
2019-04-20T06:45:14.757Z,15.06
2019-04-20T06:47:42.799Z,15.10
2019-04-20T06:50:01.645Z,15.35
2019-04-20T06:52:27.682Z,15.57
2019-04-20T06:55:03.375Z,15.45
2019-04-20T06:57:34.603Z,15.78
2019-04-20T07:00:01.257Z,15.71
2019-04-20T07:02:29.941Z,15.78
2019-04-20T07:04:59.690Z,15.85
2019-04-20T07:10:04.841Z,16.21
2019-04-20T07:12:13.035Z,16.42
2019-04-20T07:14:33.100Z,16.51
2019-04-20T07:17:24.443Z,16.58
2019-04-20T07:19:48.688Z,16.68
2019-04-20T07:22:25.296Z,16.75
2019-04-20T07:24:55.148Z,16.95
2019-04-20T07:27:13.573Z,17.12
2019-04-20T07:29:43.273Z,17.11
2019-04-20T07:31:57.621Z,17.27
2019-04-20T07:34:32.424Z,17.16
2019-04-20T07:37:17.940Z,17.41
2019-04-20T07:39:27.913Z,17.49
2019-04-20T07:41:58.641Z,17.58
2019-04-20T07:44:29.897Z,17.61
2019-04-20T07:47:06.997Z,17.63
2019-04-20T07:49:12.718Z,17.64
2019-04-20T07:51:26.641Z,17.67
2019-04-20T07:54:19.405Z,17.76
2019-04-20T07:56:39.365Z,17.60
2019-04-20T07:58:49.228Z,17.66
2019-04-20T08:01:38.906Z,17.70
2019-04-20T08:04:05.600Z,17.95
2019-04-20T08:06:22.051Z,18.15
2019-04-20T08:08:57.153Z,18.24
2019-04-20T08:11:22.852Z,18.10
2019-04-20T08:13:56.947Z,18.00
2019-04-20T08:16:32.894Z,18.43
2019-04-20T08:18:51.312Z,18.64
2019-04-20T08:21:21.103Z,18.67
2019-04-20T08:23:47.335Z,18.85
2019-04-20T08:26:00.743Z,18.65
2019-04-20T08:28:31.486Z,18.89
2019-04-20T08:31:14.195Z,18.83
2019-04-20T08:33:52.744Z,19.11
2019-04-20T08:36:10.722Z,19.12
2019-04-20T08:41:02.836Z,19.22
2019-04-20T08:43:45.132Z,19.31
2019-04-20T08:45:58.965Z,19.50
2019-04-20T08:48:30.963Z,19.59
2019-04-20T08:50:50.708Z,19.50
2019-04-20T08:53:27.893Z,19.74
2019-04-20T08:55:43.801Z,19.86
2019-04-20T08:57:51.748Z,19.74
2019-04-20T09:00:27.476Z,19.86
2019-04-20T09:02:52.147Z,20.07
2019-04-20T09:05:29.448Z,19.88
2019-04-20T09:07:49.020Z,19.93
2019-04-20T09:10:28.303Z,20.01
2019-04-20T09:12:45.040Z,20.25
2019-04-20T09:14:59.493Z,20.51
2019-04-20T09:17:35.601Z,20.60
2019-04-20T09:20:06.269Z,20.90
2019-04-20T09:22:40.630Z,20.87
2019-04-20T09:25:27.972Z,20.73
2019-04-20T09:27:32.384Z,20.94
2019-04-20T09:30:04.298Z,21.19
2019-04-20T09:32:36.111Z,21.02
2019-04-20T09:35:07.796Z,21.42
2019-04-20T09:37:38.443Z,21.45
2019-04-20T09:40:16.314Z,21.75
2019-04-20T09:42:26.177Z,21.98
2019-04-20T09:44:55.966Z,22.09
2019-04-20T09:47:28.323Z,22.33
2019-04-20T09:50:00.163Z,22.28
2019-04-20T09:52:27.859Z,22.21
2019-04-20T09:54:57.947Z,22.07
2019-04-20T09:57:25.325Z,22.20
2019-04-20T09:59:55.338Z,22.14
2019-04-20T10:02:08.728Z,22.02
2019-04-20T10:04:26.940Z,22.15
2019-04-20T10:06:55.122Z,22.27
2019-04-20T10:09:27.917Z,22.46
2019-04-20T10:11:48.767Z,22.65
2019-04-20T10:14:14.456Z,22.38
2019-04-20T10:16:41.940Z,22.54
2019-04-20T10:19:10.491Z,23.08
2019-04-20T10:21:34.287Z,22.93
2019-04-20T10:24:01.008Z,23.14
2019-04-20T10:26:27.758Z,23.06
2019-04-20T10:28:55.251Z,22.93
2019-04-20T10:31:22.325Z,22.79
2019-04-20T10:33:49.281Z,23.32
2019-04-20T10:36:25.638Z,23.47
2019-04-20T10:38:51.170Z,23.24
2019-04-20T10:41:29.662Z,23.51
2019-04-20T10:43:44.870Z,23.43
2019-04-20T10:46:11.434Z,23.39
2019-04-20T10:48:45.294Z,23.66
2019-04-20T10:51:05.291Z,23.84
2019-04-20T10:53:32.222Z,23.88
2019-04-20T10:55:58.459Z,23.89
2019-04-20T10:58:25.325Z,23.87
2019-04-20T11:00:51.959Z,23.63
2019-04-20T11:03:19.737Z,23.70
2019-04-20T11:05:46.754Z,24.31
2019-04-20T11:08:12.775Z,24.47
2019-04-20T11:10:51.057Z,24.65
2019-04-20T11:13:05.841Z,24.52
2019-04-20T11:15:32.574Z,24.38
2019-04-20T11:17:59.604Z,24.22
2019-04-20T11:20:26.034Z,24.39
2019-04-20T11:22:52.781Z,24.20
2019-04-20T11:25:19.937Z,24.15
2019-04-20T11:27:46.261Z,24.14
2019-04-20T11:30:14.116Z,24.43
2019-04-20T11:32:40.226Z,24.73
2019-04-20T11:35:14.134Z,25.03
2019-04-20T11:37:35.115Z,24.80
2019-04-20T11:40:01.370Z,24.93
2019-04-20T11:42:27.734Z,24.63
2019-04-20T11:44:54.932Z,24.22
2019-04-20T11:47:21.712Z,24.36
2019-04-20T11:49:47.465Z,24.55
2019-04-20T11:52:16.885Z,24.97
2019-04-20T11:54:42.174Z,24.82
2019-04-20T11:57:08.960Z,24.67
2019-04-20T11:59:34.981Z,24.97
2019-04-20T12:02:09.154Z,24.81
2019-04-20T12:04:48.868Z,24.71
2019-04-20T12:07:06.733Z,24.65
2019-04-20T12:09:33.450Z,24.95
2019-04-20T12:12:10.449Z,24.82
2019-04-20T12:14:25.933Z,24.89
2019-04-20T12:16:53.360Z,24.66
2019-04-20T12:19:20.655Z,24.49
2019-04-20T12:21:47.415Z,24.31
2019-04-20T12:24:14.220Z,24.61
2019-04-20T12:26:40.601Z,24.73
2019-04-20T12:29:07.822Z,24.41
2019-04-20T12:31:33.507Z,24.73
2019-04-20T12:34:00.197Z,24.72
2019-04-20T12:36:26.578Z,24.86
2019-04-20T12:38:53.325Z,24.98
2019-04-20T12:41:32.023Z,24.88
2019-04-20T12:43:47.653Z,24.83
2019-04-20T12:46:16.343Z,24.73
2019-04-20T12:48:41.792Z,24.53
2019-04-20T12:51:07.855Z,24.58
2019-04-20T12:53:34.927Z,24.97
2019-04-20T12:56:00.578Z,25.01
2019-04-20T12:58:28.434Z,25.23
2019-04-20T13:00:54.347Z,25.25
2019-04-20T13:03:21.445Z,25.13
2019-04-20T13:05:47.910Z,25.09
2019-04-20T13:08:23.159Z,25.25
2019-04-20T13:10:42.310Z,25.06
2019-04-20T13:13:14.427Z,25.12
2019-04-20T13:16:00.527Z,24.99
2019-04-20T13:18:47.638Z,25.13
2019-04-20T13:21:13.482Z,24.83
2019-04-20T13:23:40.644Z,25.05
2019-04-20T13:26:08.741Z,25.26
2019-04-20T13:28:34.704Z,25.51
2019-04-20T13:31:01.677Z,25.30
2019-04-20T13:33:27.323Z,25.40
2019-04-20T13:35:54.379Z,25.61
2019-04-20T13:38:20.658Z,25.46
2019-04-20T13:40:48.135Z,25.55
2019-04-20T13:43:14.239Z,25.72
2019-04-20T13:45:40.976Z,25.44
2019-04-20T13:48:08.919Z,25.58
2019-04-20T13:50:35.923Z,25.55
2019-04-20T13:53:01.247Z,25.42
2019-04-20T13:55:28.904Z,25.65
2019-04-20T13:58:00.074Z,25.91
2019-04-20T14:00:40.910Z,25.73
2019-04-20T14:03:08.900Z,25.37
2019-04-20T14:05:35.051Z,25.46
2019-04-20T14:08:01.136Z,25.62
2019-04-20T14:10:29.182Z,25.32
2019-04-20T14:13:01.706Z,25.29
2019-04-20T14:15:22.830Z,25.23
2019-04-20T14:17:48.971Z,25.18
2019-04-20T14:20:17.525Z,25.34
2019-04-20T14:22:42.933Z,25.34
2019-04-20T14:25:09.073Z,25.39
2019-04-20T14:27:35.226Z,25.48
2019-04-20T14:30:03.363Z,25.55
2019-04-20T14:32:29.132Z,25.66
2019-04-20T14:34:56.817Z,25.35
2019-04-20T14:37:22.677Z,25.15
2019-04-20T14:39:50.300Z,25.21
2019-04-20T14:42:26.915Z,25.45
2019-04-20T14:44:43.658Z,25.48
2019-04-20T14:47:09.770Z,25.36
2019-04-20T14:49:36.816Z,25.39
2019-04-20T14:52:03.195Z,25.27
2019-04-20T14:54:29.638Z,25.36
2019-04-20T14:56:56.194Z,25.42
2019-04-20T14:59:35.873Z,25.34
2019-04-20T15:02:06.597Z,25.36
2019-04-20T15:04:33.278Z,25.33
2019-04-20T15:07:00.278Z,25.33
2019-04-20T15:09:26.797Z,25.25
2019-04-20T15:11:54.761Z,25.09
2019-04-20T15:14:20.723Z,25.06
2019-04-20T15:16:47.022Z,25.08
2019-04-20T15:19:19.443Z,25.16
2019-04-20T15:21:47.552Z,25.27
2019-04-20T15:24:15.472Z,25.27
2019-04-20T15:26:42.495Z,25.26
2019-04-20T15:29:08.418Z,25.30
2019-04-20T15:31:34.530Z,25.10
2019-04-20T15:34:01.313Z,25.08
2019-04-20T15:36:28.479Z,25.04
2019-04-20T15:38:54.734Z,25.08
2019-04-20T15:41:21.503Z,24.96
2019-04-20T15:43:49.117Z,24.95
2019-04-20T15:46:15.371Z,24.85
2019-04-20T15:48:41.843Z,24.99
2019-04-20T15:51:09.842Z,24.97
2019-04-20T15:53:35.524Z,25.05
2019-04-20T15:56:04.979Z,24.90
2019-04-20T15:58:30.163Z,24.84
2019-04-20T16:00:56.523Z,24.79
2019-04-20T16:03:31.312Z,24.78
2019-04-20T16:06:01.204Z,24.79
2019-04-20T16:08:30.263Z,24.70
2019-04-20T16:10:57.233Z,24.62
2019-04-20T16:13:31.360Z,24.64
2019-04-20T16:15:49.878Z,24.62
2019-04-20T16:18:16.805Z,24.58
2019-04-20T16:20:51.659Z,24.60
2019-04-20T16:23:10.329Z,24.59
2019-04-20T16:25:43.663Z,24.51
2019-04-20T16:28:10.095Z,24.54
2019-04-20T16:30:38.022Z,24.47
2019-04-20T16:33:03.637Z,24.37
2019-04-20T16:35:30.478Z,24.31
2019-04-20T16:37:58.205Z,24.39
2019-04-20T16:40:25.333Z,24.28
2019-04-20T16:42:52.136Z,24.06
2019-04-20T16:45:19.141Z,24.18
2019-04-20T16:47:46.174Z,24.12
2019-04-20T16:50:12.997Z,24.02
2019-04-20T16:52:39.015Z,23.97
2019-04-20T16:55:06.042Z,23.80
2019-04-20T16:57:31.969Z,23.77
2019-04-20T16:59:59.944Z,23.77
2019-04-20T17:02:26.470Z,23.71
2019-04-20T17:04:54.813Z,23.77
2019-04-20T17:07:22.850Z,23.58
2019-04-20T17:09:49.758Z,23.62
2019-04-20T17:12:17.686Z,23.47
2019-04-20T17:14:43.463Z,23.43
2019-04-20T17:17:11.448Z,23.32
2019-04-20T17:19:37.650Z,23.40
2019-04-20T17:22:03.664Z,23.32
2019-04-20T17:24:31.348Z,23.01
2019-04-20T17:27:05.337Z,22.90
2019-04-20T17:29:33.713Z,22.81
2019-04-20T17:32:08.430Z,22.83
2019-04-20T17:34:46.967Z,22.53
2019-04-20T17:37:02.334Z,22.43
2019-04-20T17:39:41.226Z,22.40
2019-04-20T17:42:14.685Z,22.34
2019-04-20T17:44:35.920Z,22.26
2019-04-20T17:47:00.587Z,22.12
2019-04-20T17:49:30.609Z,22.01
2019-04-20T17:52:05.109Z,21.97
2019-04-20T17:54:25.158Z,21.87
2019-04-20T17:56:52.156Z,21.76
2019-04-20T17:59:17.741Z,21.63
2019-04-20T18:02:20.440Z,21.58
2019-04-20T18:05:09.793Z,21.45
2019-04-20T18:07:35.498Z,21.16
2019-04-20T18:09:58.432Z,21.13
2019-04-20T18:12:09.787Z,21.09
2019-04-20T18:14:48.038Z,21.03
2019-04-20T18:17:17.811Z,20.92
2019-04-20T18:19:40.834Z,20.58
2019-04-20T18:22:09.872Z,20.90
2019-04-20T18:25:08.929Z,20.71
2019-04-20T18:27:23.941Z,20.74
2019-04-20T18:29:46.168Z,20.59
2019-04-20T18:32:05.180Z,20.29
2019-04-20T18:34:40.412Z,19.99
2019-04-20T18:37:11.957Z,19.96
2019-04-20T18:39:41.432Z,19.74
2019-04-20T18:42:09.986Z,19.80
2019-04-20T18:44:45.598Z,19.76
2019-04-20T18:47:18.211Z,19.95
2019-04-20T18:49:36.014Z,20.03
2019-04-20T18:51:48.096Z,19.75
2019-04-20T18:54:20.863Z,19.61
2019-04-20T18:56:45.790Z,19.56
2019-04-20T18:59:09.193Z,19.87
2019-04-20T19:01:38.403Z,19.55
2019-04-20T19:04:01.791Z,19.50
2019-04-20T19:06:29.788Z,19.46
2019-04-20T19:08:56.017Z,19.28
2019-04-20T19:11:24.990Z,19.16
2019-04-20T19:13:59.281Z,19.15
2019-04-20T19:16:37.603Z,18.89
2019-04-20T19:19:28.571Z,18.96
2019-04-20T19:21:47.610Z,18.94
2019-04-20T19:24:16.952Z,18.84
2019-04-20T19:26:46.685Z,18.72
2019-04-20T19:29:15.756Z,18.67
2019-04-20T19:31:44.863Z,18.68
2019-04-20T19:34:22.735Z,18.93
2019-04-20T19:36:34.841Z,18.57
2019-04-20T19:39:12.116Z,18.42
2019-04-20T19:41:32.123Z,18.50
2019-04-20T19:44:02.524Z,18.44
2019-04-20T19:46:44.719Z,18.30
2019-04-20T19:48:52.682Z,18.38
2019-04-20T19:51:28.629Z,18.01
2019-04-20T19:53:58.568Z,18.25
2019-04-20T19:56:16.944Z,17.91
2019-04-20T19:58:39.885Z,18.09
2019-04-20T20:00:57.721Z,18.23
2019-04-20T20:03:21.969Z,18.13
2019-04-20T20:05:50.913Z,18.05
2019-04-20T20:08:20.907Z,18.49
2019-04-20T20:10:44.151Z,18.28
2019-04-20T20:13:09.932Z,18.26
2019-04-20T20:15:38.035Z,18.42
2019-04-20T20:18:21.531Z,18.65
2019-04-20T20:20:42.923Z,18.31
2019-04-20T20:22:58.208Z,18.27
2019-04-20T20:25:29.112Z,18.48
2019-04-20T20:27:55.175Z,17.84
2019-04-20T20:30:25.454Z,17.82
2019-04-20T20:33:01.286Z,17.77
2019-04-20T20:35:17.487Z,17.66
2019-04-20T20:37:44.779Z,17.63
2019-04-20T20:40:15.817Z,17.48
2019-04-20T20:42:45.774Z,17.28
2019-04-20T20:45:09.310Z,17.36
2019-04-20T20:47:48.494Z,17.53
2019-04-20T20:50:17.387Z,17.20
2019-04-20T20:52:32.466Z,17.29
2019-04-20T20:54:54.100Z,17.06
2019-04-20T20:57:18.888Z,17.30
2019-04-20T20:59:51.383Z,17.56
2019-04-20T21:02:14.575Z,16.95
2019-04-20T21:04:33.476Z,16.47
2019-04-20T21:07:00.625Z,15.93
2019-04-20T21:09:27.197Z,15.94
2019-04-20T21:12:01.787Z,15.85
2019-04-20T21:14:26.077Z,15.72
2019-04-20T21:16:57.519Z,15.82
2019-04-20T21:19:27.274Z,15.71
2019-04-20T21:21:49.424Z,15.65
2019-04-20T21:24:17.799Z,15.60
2019-04-20T21:26:44.100Z,15.63
2019-04-20T21:29:10.020Z,15.70
2019-04-20T21:31:36.621Z,15.60
2019-04-20T21:34:07.738Z,15.70
2019-04-20T21:36:31.369Z,15.70
2019-04-20T21:38:55.924Z,15.82
2019-04-20T21:41:25.318Z,15.79
2019-04-20T21:43:49.850Z,15.58
2019-04-20T21:46:16.584Z,15.52
2019-04-20T21:48:58.827Z,15.47
2019-04-20T21:51:25.753Z,15.29
2019-04-20T21:53:37.811Z,15.32
2019-04-20T21:56:03.900Z,15.23
2019-04-20T21:58:35.443Z,15.21
2019-04-20T22:01:10.920Z,15.10
2019-04-20T22:03:24.751Z,15.44
2019-04-20T22:05:52.502Z,15.27
2019-04-20T22:08:19.743Z,15.66
2019-04-20T22:10:46.971Z,15.33
2019-04-20T22:13:12.285Z,15.27
2019-04-20T22:15:46.581Z,15.21
2019-04-20T22:18:10.943Z,14.90
2019-04-20T22:20:46.811Z,14.68
2019-04-20T22:23:13.315Z,14.52
2019-04-20T22:25:43.773Z,14.37
2019-04-20T22:27:55.666Z,14.31
2019-04-20T22:30:19.930Z,14.96
2019-04-20T22:32:48.590Z,15.21
2019-04-20T22:35:15.670Z,14.31
2019-04-20T22:37:52.074Z,13.60
2019-04-20T22:40:20.492Z,13.20
2019-04-20T22:42:49.487Z,13.33
2019-04-20T22:45:14.205Z,13.31
2019-04-20T22:47:39.150Z,13.17
2019-04-20T22:50:20.281Z,13.24
2019-04-20T22:52:47.743Z,13.33
2019-04-20T22:55:19.873Z,13.26
2019-04-20T22:57:50.460Z,13.39
2019-04-20T22:59:59.672Z,13.55
2019-04-20T23:02:22.568Z,13.62
2019-04-20T23:04:46.715Z,13.59
2019-04-20T23:07:12.807Z,13.38
2019-04-20T23:09:46.846Z,13.32
2019-04-20T23:12:10.023Z,13.36
2019-04-20T23:14:34.209Z,13.13
2019-04-20T23:16:59.802Z,13.03
2019-04-20T23:19:34.292Z,13.34
2019-04-20T23:21:58.971Z,13.46
2019-04-20T23:24:20.529Z,13.45
2019-04-20T23:26:47.626Z,13.49
2019-04-20T23:29:13.439Z,13.26
2019-04-20T23:31:46.044Z,13.13
2019-04-20T23:34:12.496Z,13.10
2019-04-20T23:36:39.047Z,13.07
2019-04-20T23:39:03.013Z,13.00
2019-04-20T23:41:28.014Z,13.10
2019-04-20T23:44:04.919Z,13.02
2019-04-20T23:46:31.532Z,12.98
2019-04-20T23:49:06.584Z,13.01
2019-04-20T23:51:49.888Z,13.63
2019-04-20T23:54:08.286Z,13.16
2019-04-20T23:56:24.199Z,12.95
2019-04-20T23:58:53.446Z,12.71
